sensor_id;sensor_type;location;lat;lon;timestamp;P1;durP1;ratioP1;P2;durP2;ratioP2
21987;SDS011;11158;53.404;-1.510;2022-08-03T00:01:34;1.88;;;0.40;;
21987;SDS011;11158;53.404;-1.510;2022-08-03T00:04:00;0.60;;;0.25;;
21987;SDS011;11158;53.404;-1.510;2022-08-03T00:06:27;0.55;;;0.28;;
21987;SDS011;11158;53.404;-1.510;2022-08-03T00:08:53;1.05;;;0.30;;
21987;SDS011;11158;53.404;-1.510;2022-08-03T00:11:18;0.25;;;0.20;;
21987;SDS011;11158;53.404;-1.510;2022-08-03T00:13:45;0.77;;;0.30;;
21987;SDS011;11158;53.404;-1.510;2022-08-03T00:16:10;0.20;;;0.20;;
21987;SDS011;11158;53.404;-1.510;2022-08-03T00:18:37;0.30;;;0.20;;
21987;SDS011;11158;53.404;-1.510;2022-08-03T00:21:03;1.13;;;0.30;;
21987;SDS011;11158;53.404;-1.510;2022-08-03T00:23:29;0.85;;;0.30;;
21987;SDS011;11158;53.404;-1.510;2022-08-03T00:25:55;0.65;;;0.20;;
21987;SDS011;11158;53.404;-1.510;2022-08-03T00:28:21;1.00;;;0.30;;
21987;SDS011;11158;53.404;-1.510;2022-08-03T00:30:47;0.20;;;0.20;;
21987;SDS011;11158;53.404;-1.510;2022-08-03T00:33:12;0.20;;;0.20;;
21987;SDS011;11158;53.404;-1.510;2022-08-03T00:35:41;0.22;;;0.22;;
21987;SDS011;11158;53.404;-1.510;2022-08-03T00:38:06;2.60;;;0.30;;
21987;SDS011;11158;53.404;-1.510;2022-08-03T00:40:32;1.75;;;0.20;;
21987;SDS011;11158;53.404;-1.510;2022-08-03T00:42:59;0.30;;;0.20;;
21987;SDS011;11158;53.404;-1.510;2022-08-03T00:45:27;1.30;;;0.20;;
21987;SDS011;11158;53.404;-1.510;2022-08-03T00:47:55;0.57;;;0.10;;
21987;SDS011;11158;53.404;-1.510;2022-08-03T00:50:22;4.50;;;0.20;;
21987;SDS011;11158;53.404;-1.510;2022-08-03T00:52:51;0.57;;;0.20;;
21987;SDS011;11158;53.404;-1.510;2022-08-03T00:55:18;0.80;;;0.20;;
21987;SDS011;11158;53.404;-1.510;2022-08-03T00:57:44;0.70;;;0.20;;
21987;SDS011;11158;53.404;-1.510;2022-08-03T01:00:13;3.45;;;0.75;;
21987;SDS011;11158;53.404;-1.510;2022-08-03T01:02:41;1.05;;;0.30;;
21987;SDS011;11158;53.404;-1.510;2022-08-03T01:05:07;0.63;;;0.17;;
21987;SDS011;11158;53.404;-1.510;2022-08-03T01:10:16;2.75;;;0.30;;
21987;SDS011;11158;53.404;-1.510;2022-08-03T01:12:58;1.55;;;0.32;;
21987;SDS011;11158;53.404;-1.510;2022-08-03T01:18:13;0.25;;;0.17;;
21987;SDS011;11158;53.404;-1.510;2022-08-03T01:20:46;0.35;;;0.10;;
21987;SDS011;11158;53.404;-1.510;2022-08-03T01:31:35;2.58;;;0.30;;
21987;SDS011;11158;53.404;-1.510;2022-08-03T01:34:10;0.50;;;0.10;;
21987;SDS011;11158;53.404;-1.510;2022-08-03T01:36:42;0.13;;;0.10;;
21987;SDS011;11158;53.404;-1.510;2022-08-03T01:39:13;0.40;;;0.20;;
21987;SDS011;11158;53.404;-1.510;2022-08-03T01:41:47;0.20;;;0.10;;
21987;SDS011;11158;53.404;-1.510;2022-08-03T01:44:18;0.15;;;0.10;;
21987;SDS011;11158;53.404;-1.510;2022-08-03T01:46:46;1.55;;;0.22;;
21987;SDS011;11158;53.404;-1.510;2022-08-03T01:49:15;1.55;;;0.10;;
21987;SDS011;11158;53.404;-1.510;2022-08-03T01:51:43;0.10;;;0.10;;
21987;SDS011;11158;53.404;-1.510;2022-08-03T01:54:11;1.27;;;0.17;;
21987;SDS011;11158;53.404;-1.510;2022-08-03T01:56:41;1.20;;;0.20;;
21987;SDS011;11158;53.404;-1.510;2022-08-03T01:59:07;0.30;;;0.10;;
21987;SDS011;11158;53.404;-1.510;2022-08-03T02:01:36;0.98;;;0.15;;
21987;SDS011;11158;53.404;-1.510;2022-08-03T02:04:03;0.82;;;0.15;;
21987;SDS011;11158;53.404;-1.510;2022-08-03T02:06:31;2.95;;;0.40;;
21987;SDS011;11158;53.404;-1.510;2022-08-03T02:08:59;0.20;;;0.20;;
21987;SDS011;11158;53.404;-1.510;2022-08-03T02:11:26;0.20;;;0.20;;
21987;SDS011;11158;53.404;-1.510;2022-08-03T02:13:54;0.22;;;0.10;;
21987;SDS011;11158;53.404;-1.510;2022-08-03T02:16:22;0.17;;;0.17;;
21987;SDS011;11158;53.404;-1.510;2022-08-03T02:18:48;0.35;;;0.15;;
21987;SDS011;11158;53.404;-1.510;2022-08-03T02:21:15;0.10;;;0.10;;
21987;SDS011;11158;53.404;-1.510;2022-08-03T02:23:42;0.10;;;0.10;;
21987;SDS011;11158;53.404;-1.510;2022-08-03T02:26:09;0.10;;;0.10;;
21987;SDS011;11158;53.404;-1.510;2022-08-03T02:28:40;1.50;;;0.20;;
21987;SDS011;11158;53.404;-1.510;2022-08-03T02:31:14;0.20;;;0.20;;
21987;SDS011;11158;53.404;-1.510;2022-08-03T02:33:43;0.13;;;0.13;;
21987;SDS011;11158;53.404;-1.510;2022-08-03T02:36:13;0.10;;;0.10;;
21987;SDS011;11158;53.404;-1.510;2022-08-03T02:38:42;0.70;;;0.20;;
21987;SDS011;11158;53.404;-1.510;2022-08-03T02:41:14;0.00;;;0.00;;
21987;SDS011;11158;53.404;-1.510;2022-08-03T02:43:47;1.27;;;0.20;;
21987;SDS011;11158;53.404;-1.510;2022-08-03T02:46:17;1.55;;;0.20;;
21987;SDS011;11158;53.404;-1.510;2022-08-03T02:48:45;0.10;;;0.10;;
21987;SDS011;11158;53.404;-1.510;2022-08-03T02:51:12;0.20;;;0.10;;
21987;SDS011;11158;53.404;-1.510;2022-08-03T02:53:39;0.38;;;0.10;;
21987;SDS011;11158;53.404;-1.510;2022-08-03T02:56:06;0.20;;;0.20;;
21987;SDS011;11158;53.404;-1.510;2022-08-03T02:58:34;1.02;;;0.13;;
21987;SDS011;11158;53.404;-1.510;2022-08-03T03:01:04;1.17;;;0.10;;
21987;SDS011;11158;53.404;-1.510;2022-08-03T03:03:32;0.13;;;0.10;;
21987;SDS011;11158;53.404;-1.510;2022-08-03T03:05:59;0.38;;;0.10;;
21987;SDS011;11158;53.404;-1.510;2022-08-03T03:08:29;0.80;;;0.22;;
21987;SDS011;11158;53.404;-1.510;2022-08-03T03:10:57;0.32;;;0.10;;
21987;SDS011;11158;53.404;-1.510;2022-08-03T03:13:28;0.10;;;0.10;;
21987;SDS011;11158;53.404;-1.510;2022-08-03T03:15:56;0.08;;;0.08;;
21987;SDS011;11158;53.404;-1.510;2022-08-03T03:18:28;0.45;;;0.20;;
21987;SDS011;11158;53.404;-1.510;2022-08-03T03:20:56;1.15;;;0.20;;
21987;SDS011;11158;53.404;-1.510;2022-08-03T03:23:23;0.85;;;0.10;;
21987;SDS011;11158;53.404;-1.510;2022-08-03T03:25:49;0.32;;;0.10;;
21987;SDS011;11158;53.404;-1.510;2022-08-03T03:28:17;0.25;;;0.10;;
21987;SDS011;11158;53.404;-1.510;2022-08-03T03:30:43;0.10;;;0.10;;
21987;SDS011;11158;53.404;-1.510;2022-08-03T03:33:09;1.92;;;0.35;;
21987;SDS011;11158;53.404;-1.510;2022-08-03T03:35:36;1.45;;;0.28;;
21987;SDS011;11158;53.404;-1.510;2022-08-03T03:38:02;0.25;;;0.25;;
21987;SDS011;11158;53.404;-1.510;2022-08-03T03:40:27;0.20;;;0.20;;
21987;SDS011;11158;53.404;-1.510;2022-08-03T03:42:53;0.60;;;0.30;;
21987;SDS011;11158;53.404;-1.510;2022-08-03T03:45:19;1.23;;;0.30;;
21987;SDS011;11158;53.404;-1.510;2022-08-03T03:47:46;0.40;;;0.38;;
21987;SDS011;11158;53.404;-1.510;2022-08-03T03:50:12;1.08;;;0.45;;
21987;SDS011;11158;53.404;-1.510;2022-08-03T03:52:40;1.45;;;0.32;;
21987;SDS011;11158;53.404;-1.510;2022-08-03T03:55:05;0.82;;;0.35;;
21987;SDS011;11158;53.404;-1.510;2022-08-03T03:57:32;0.40;;;0.40;;
21987;SDS011;11158;53.404;-1.510;2022-08-03T03:59:58;1.17;;;0.63;;
21987;SDS011;11158;53.404;-1.510;2022-08-03T04:02:24;0.50;;;0.50;;
21987;SDS011;11158;53.404;-1.510;2022-08-03T04:04:49;0.40;;;0.40;;
21987;SDS011;11158;53.404;-1.510;2022-08-03T04:07:40;1.55;;;0.52;;
21987;SDS011;11158;53.404;-1.510;2022-08-03T04:11:04;2.05;;;0.68;;
21987;SDS011;11158;53.404;-1.510;2022-08-03T04:13:36;0.90;;;0.43;;
21987;SDS011;11158;53.404;-1.510;2022-08-03T04:16:05;3.97;;;0.85;;
21987;SDS011;11158;53.404;-1.510;2022-08-03T04:18:35;0.43;;;0.43;;
21987;SDS011;11158;53.404;-1.510;2022-08-03T04:21:06;3.75;;;0.45;;
21987;SDS011;11158;53.404;-1.510;2022-08-03T04:23:36;0.90;;;0.40;;
21987;SDS011;11158;53.404;-1.510;2022-08-03T04:26:06;0.75;;;0.52;;
21987;SDS011;11158;53.404;-1.510;2022-08-03T04:28:36;0.70;;;0.55;;
21987;SDS011;11158;53.404;-1.510;2022-08-03T04:31:05;0.80;;;0.40;;
21987;SDS011;11158;53.404;-1.510;2022-08-03T04:33:33;0.50;;;0.50;;
21987;SDS011;11158;53.404;-1.510;2022-08-03T04:36:02;1.33;;;0.70;;
21987;SDS011;11158;53.404;-1.510;2022-08-03T04:38:32;0.40;;;0.40;;
21987;SDS011;11158;53.404;-1.510;2022-08-03T04:41:03;1.20;;;0.50;;
21987;SDS011;11158;53.404;-1.510;2022-08-03T04:43:32;1.58;;;0.82;;
21987;SDS011;11158;53.404;-1.510;2022-08-03T04:45:59;0.30;;;0.30;;
21987;SDS011;11158;53.404;-1.510;2022-08-03T04:48:27;0.80;;;0.50;;
21987;SDS011;11158;53.404;-1.510;2022-08-03T04:50:52;0.30;;;0.30;;
21987;SDS011;11158;53.404;-1.510;2022-08-03T04:53:18;0.52;;;0.50;;
21987;SDS011;11158;53.404;-1.510;2022-08-03T04:55:44;1.83;;;0.40;;
21987;SDS011;11158;53.404;-1.510;2022-08-03T04:58:11;0.60;;;0.50;;
21987;SDS011;11158;53.404;-1.510;2022-08-03T05:00:38;1.80;;;0.50;;
21987;SDS011;11158;53.404;-1.510;2022-08-03T05:03:04;1.33;;;0.60;;
21987;SDS011;11158;53.404;-1.510;2022-08-03T05:05:30;1.45;;;0.43;;
21987;SDS011;11158;53.404;-1.510;2022-08-03T05:07:55;1.25;;;0.38;;
21987;SDS011;11158;53.404;-1.510;2022-08-03T05:10:21;1.08;;;0.40;;
21987;SDS011;11158;53.404;-1.510;2022-08-03T05:12:47;0.75;;;0.40;;
21987;SDS011;11158;53.404;-1.510;2022-08-03T05:15:13;0.82;;;0.50;;
21987;SDS011;11158;53.404;-1.510;2022-08-03T05:17:40;1.45;;;0.30;;
21987;SDS011;11158;53.404;-1.510;2022-08-03T05:20:06;2.17;;;0.65;;
21987;SDS011;11158;53.404;-1.510;2022-08-03T05:22:32;2.58;;;0.57;;
21987;SDS011;11158;53.404;-1.510;2022-08-03T05:24:57;0.75;;;0.47;;
21987;SDS011;11158;53.404;-1.510;2022-08-03T05:27:25;2.17;;;0.55;;
21987;SDS011;11158;53.404;-1.510;2022-08-03T05:29:51;0.40;;;0.40;;
21987;SDS011;11158;53.404;-1.510;2022-08-03T05:32:17;1.17;;;0.50;;
21987;SDS011;11158;53.404;-1.510;2022-08-03T05:34:43;0.55;;;0.45;;
21987;SDS011;11158;53.404;-1.510;2022-08-03T05:37:09;0.80;;;0.40;;
21987;SDS011;11158;53.404;-1.510;2022-08-03T05:39:35;1.05;;;0.50;;
21987;SDS011;11158;53.404;-1.510;2022-08-03T05:42:01;2.05;;;0.60;;
21987;SDS011;11158;53.404;-1.510;2022-08-03T05:44:26;0.70;;;0.40;;
21987;SDS011;11158;53.404;-1.510;2022-08-03T05:46:53;1.20;;;0.45;;
21987;SDS011;11158;53.404;-1.510;2022-08-03T05:49:19;2.50;;;0.40;;
21987;SDS011;11158;53.404;-1.510;2022-08-03T05:51:45;1.10;;;0.50;;
21987;SDS011;11158;53.404;-1.510;2022-08-03T05:54:11;1.20;;;0.43;;
21987;SDS011;11158;53.404;-1.510;2022-08-03T05:56:37;2.47;;;0.60;;
21987;SDS011;11158;53.404;-1.510;2022-08-03T05:59:05;1.45;;;0.50;;
21987;SDS011;11158;53.404;-1.510;2022-08-03T06:01:31;0.55;;;0.50;;
21987;SDS011;11158;53.404;-1.510;2022-08-03T06:03:59;1.05;;;0.52;;
21987;SDS011;11158;53.404;-1.510;2022-08-03T06:06:25;0.77;;;0.50;;
21987;SDS011;11158;53.404;-1.510;2022-08-03T06:08:51;1.05;;;0.50;;
21987;SDS011;11158;53.404;-1.510;2022-08-03T06:11:16;1.13;;;0.63;;
21987;SDS011;11158;53.404;-1.510;2022-08-03T06:13:42;2.15;;;0.70;;
21987;SDS011;11158;53.404;-1.510;2022-08-03T06:16:09;2.03;;;0.60;;
21987;SDS011;11158;53.404;-1.510;2022-08-03T06:18:34;1.65;;;0.60;;
21987;SDS011;11158;53.404;-1.510;2022-08-03T06:21:00;1.55;;;0.68;;
21987;SDS011;11158;53.404;-1.510;2022-08-03T06:23:26;3.10;;;0.50;;
21987;SDS011;11158;53.404;-1.510;2022-08-03T06:25:52;2.72;;;0.77;;
21987;SDS011;11158;53.404;-1.510;2022-08-03T06:28:17;1.23;;;0.50;;
21987;SDS011;11158;53.404;-1.510;2022-08-03T06:30:44;1.23;;;0.60;;
21987;SDS011;11158;53.404;-1.510;2022-08-03T06:33:10;2.40;;;0.50;;
21987;SDS011;11158;53.404;-1.510;2022-08-03T06:35:36;4.82;;;1.08;;
21987;SDS011;11158;53.404;-1.510;2022-08-03T06:38:02;2.10;;;0.70;;
21987;SDS011;11158;53.404;-1.510;2022-08-03T06:40:28;2.47;;;0.75;;
21987;SDS011;11158;53.404;-1.510;2022-08-03T06:42:59;1.88;;;0.63;;
21987;SDS011;11158;53.404;-1.510;2022-08-03T06:45:26;3.83;;;1.23;;
21987;SDS011;11158;53.404;-1.510;2022-08-03T06:47:59;2.45;;;0.77;;
21987;SDS011;11158;53.404;-1.510;2022-08-03T06:50:26;1.50;;;0.70;;
21987;SDS011;11158;53.404;-1.510;2022-08-03T06:52:51;1.20;;;0.60;;
21987;SDS011;11158;53.404;-1.510;2022-08-03T06:55:17;2.78;;;1.15;;
21987;SDS011;11158;53.404;-1.510;2022-08-03T06:57:43;1.08;;;0.70;;
21987;SDS011;11158;53.404;-1.510;2022-08-03T07:00:09;1.95;;;0.73;;
21987;SDS011;11158;53.404;-1.510;2022-08-03T07:02:36;1.50;;;0.75;;
21987;SDS011;11158;53.404;-1.510;2022-08-03T07:05:02;1.17;;;0.70;;
21987;SDS011;11158;53.404;-1.510;2022-08-03T07:07:28;2.10;;;0.80;;
21987;SDS011;11158;53.404;-1.510;2022-08-03T07:09:54;2.03;;;0.80;;
21987;SDS011;11158;53.404;-1.510;2022-08-03T07:12:20;4.38;;;0.80;;
21987;SDS011;11158;53.404;-1.510;2022-08-03T07:14:46;2.63;;;0.90;;
21987;SDS011;11158;53.404;-1.510;2022-08-03T07:17:12;3.75;;;1.13;;
21987;SDS011;11158;53.404;-1.510;2022-08-03T07:19:38;0.98;;;0.70;;
21987;SDS011;11158;53.404;-1.510;2022-08-03T07:22:04;3.00;;;0.90;;
21987;SDS011;11158;53.404;-1.510;2022-08-03T07:24:30;3.45;;;0.85;;
21987;SDS011;11158;53.404;-1.510;2022-08-03T07:26:55;1.90;;;0.80;;
21987;SDS011;11158;53.404;-1.510;2022-08-03T07:29:21;2.50;;;1.00;;
21987;SDS011;11158;53.404;-1.510;2022-08-03T07:31:47;3.08;;;1.00;;
21987;SDS011;11158;53.404;-1.510;2022-08-03T07:34:13;1.88;;;0.85;;
21987;SDS011;11158;53.404;-1.510;2022-08-03T07:36:39;2.97;;;1.00;;
21987;SDS011;11158;53.404;-1.510;2022-08-03T07:39:05;3.10;;;1.10;;
21987;SDS011;11158;53.404;-1.510;2022-08-03T07:41:31;3.42;;;1.05;;
21987;SDS011;11158;53.404;-1.510;2022-08-03T07:43:57;2.67;;;0.90;;
21987;SDS011;11158;53.404;-1.510;2022-08-03T07:46:23;2.35;;;0.90;;
21987;SDS011;11158;53.404;-1.510;2022-08-03T07:48:49;2.15;;;1.00;;
21987;SDS011;11158;53.404;-1.510;2022-08-03T07:51:14;2.03;;;1.10;;
21987;SDS011;11158;53.404;-1.510;2022-08-03T07:53:40;3.92;;;1.45;;
21987;SDS011;11158;53.404;-1.510;2022-08-03T07:56:06;5.15;;;1.35;;
21987;SDS011;11158;53.404;-1.510;2022-08-03T07:58:32;1.90;;;1.05;;
21987;SDS011;11158;53.404;-1.510;2022-08-03T08:01:00;2.40;;;1.15;;
21987;SDS011;11158;53.404;-1.510;2022-08-03T08:03:25;3.25;;;1.13;;
21987;SDS011;11158;53.404;-1.510;2022-08-03T08:05:51;2.20;;;0.90;;
21987;SDS011;11158;53.404;-1.510;2022-08-03T08:08:18;2.22;;;1.20;;
21987;SDS011;11158;53.404;-1.510;2022-08-03T08:10:44;5.28;;;1.00;;
21987;SDS011;11158;53.404;-1.510;2022-08-03T08:13:11;3.42;;;1.17;;
21987;SDS011;11158;53.404;-1.510;2022-08-03T08:15:37;1.70;;;0.88;;
21987;SDS011;11158;53.404;-1.510;2022-08-03T08:18:03;4.10;;;1.02;;
21987;SDS011;11158;53.404;-1.510;2022-08-03T08:20:32;2.53;;;1.17;;
21987;SDS011;11158;53.404;-1.510;2022-08-03T08:23:01;3.20;;;1.00;;
21987;SDS011;11158;53.404;-1.510;2022-08-03T08:25:29;1.70;;;1.00;;
21987;SDS011;11158;53.404;-1.510;2022-08-03T08:27:56;2.08;;;1.00;;
21987;SDS011;11158;53.404;-1.510;2022-08-03T08:30:22;2.25;;;1.02;;
21987;SDS011;11158;53.404;-1.510;2022-08-03T08:32:48;3.08;;;1.00;;
21987;SDS011;11158;53.404;-1.510;2022-08-03T08:35:15;3.60;;;1.15;;
21987;SDS011;11158;53.404;-1.510;2022-08-03T08:37:41;3.03;;;1.20;;
21987;SDS011;11158;53.404;-1.510;2022-08-03T08:40:08;1.83;;;1.05;;
21987;SDS011;11158;53.404;-1.510;2022-08-03T08:42:39;2.05;;;1.10;;
21987;SDS011;11158;53.404;-1.510;2022-08-03T08:47:37;5.30;;;1.25;;
21987;SDS011;11158;53.404;-1.510;2022-08-03T08:50:05;2.17;;;1.15;;
21987;SDS011;11158;53.404;-1.510;2022-08-03T08:52:35;2.88;;;1.00;;
21987;SDS011;11158;53.404;-1.510;2022-08-03T08:55:05;5.07;;;1.23;;
21987;SDS011;11158;53.404;-1.510;2022-08-03T08:57:34;4.03;;;1.35;;
21987;SDS011;11158;53.404;-1.510;2022-08-03T09:00:08;2.47;;;0.83;;
21987;SDS011;11158;53.404;-1.510;2022-08-03T09:02:38;3.67;;;1.02;;
21987;SDS011;11158;53.404;-1.510;2022-08-03T09:05:08;2.75;;;1.27;;
21987;SDS011;11158;53.404;-1.510;2022-08-03T09:07:37;2.78;;;1.27;;
21987;SDS011;11158;53.404;-1.510;2022-08-03T09:10:04;2.03;;;1.10;;
21987;SDS011;11158;53.404;-1.510;2022-08-03T09:12:35;3.40;;;1.00;;
21987;SDS011;11158;53.404;-1.510;2022-08-03T09:15:17;2.92;;;1.20;;
21987;SDS011;11158;53.404;-1.510;2022-08-03T09:17:43;3.03;;;1.30;;
21987;SDS011;11158;53.404;-1.510;2022-08-03T09:20:09;4.05;;;1.30;;
21987;SDS011;11158;53.404;-1.510;2022-08-03T09:22:35;2.55;;;1.35;;
21987;SDS011;11158;53.404;-1.510;2022-08-03T09:25:25;3.90;;;1.30;;
21987;SDS011;11158;53.404;-1.510;2022-08-03T09:27:54;5.47;;;1.25;;
21987;SDS011;11158;53.404;-1.510;2022-08-03T09:30:29;3.45;;;1.10;;
21987;SDS011;11158;53.404;-1.510;2022-08-03T09:32:59;2.00;;;1.13;;
21987;SDS011;11158;53.404;-1.510;2022-08-03T09:35:29;2.45;;;1.05;;
21987;SDS011;11158;53.404;-1.510;2022-08-03T09:38:07;3.33;;;1.27;;
21987;SDS011;11158;53.404;-1.510;2022-08-03T09:40:34;3.60;;;1.30;;
21987;SDS011;11158;53.404;-1.510;2022-08-03T09:43:00;2.90;;;1.30;;
21987;SDS011;11158;53.404;-1.510;2022-08-03T09:45:26;5.18;;;1.40;;
21987;SDS011;11158;53.404;-1.510;2022-08-03T09:47:54;2.33;;;1.20;;
21987;SDS011;11158;53.404;-1.510;2022-08-03T09:50:21;3.03;;;1.33;;
21987;SDS011;11158;53.404;-1.510;2022-08-03T09:52:46;2.08;;;0.98;;
21987;SDS011;11158;53.404;-1.510;2022-08-03T09:55:16;2.63;;;1.23;;
21987;SDS011;11158;53.404;-1.510;2022-08-03T09:57:45;3.03;;;1.13;;
21987;SDS011;11158;53.404;-1.510;2022-08-03T10:00:14;3.17;;;1.42;;
21987;SDS011;11158;53.404;-1.510;2022-08-03T10:02:42;2.72;;;1.10;;
21987;SDS011;11158;53.404;-1.510;2022-08-03T10:05:10;2.55;;;1.27;;
21987;SDS011;11158;53.404;-1.510;2022-08-03T10:07:49;3.97;;;1.17;;
21987;SDS011;11158;53.404;-1.510;2022-08-03T10:10:16;4.32;;;1.48;;
21987;SDS011;11158;53.404;-1.510;2022-08-03T10:12:44;4.55;;;1.60;;
21987;SDS011;11158;53.404;-1.510;2022-08-03T10:15:13;2.63;;;1.23;;
21987;SDS011;11158;53.404;-1.510;2022-08-03T10:17:38;4.28;;;1.33;;
21987;SDS011;11158;53.404;-1.510;2022-08-03T10:20:04;3.08;;;1.30;;
21987;SDS011;11158;53.404;-1.510;2022-08-03T10:22:32;4.47;;;1.30;;
21987;SDS011;11158;53.404;-1.510;2022-08-03T10:25:03;6.38;;;1.50;;
21987;SDS011;11158;53.404;-1.510;2022-08-03T10:27:33;5.57;;;1.48;;
21987;SDS011;11158;53.404;-1.510;2022-08-03T10:30:05;4.75;;;1.48;;
21987;SDS011;11158;53.404;-1.510;2022-08-03T10:32:34;3.72;;;1.58;;
21987;SDS011;11158;53.404;-1.510;2022-08-03T10:35:19;3.28;;;1.23;;
21987;SDS011;11158;53.404;-1.510;2022-08-03T10:37:59;3.72;;;1.27;;
21987;SDS011;11158;53.404;-1.510;2022-08-03T10:42:58;4.10;;;1.88;;
21987;SDS011;11158;53.404;-1.510;2022-08-03T10:45:31;3.92;;;1.17;;
21987;SDS011;11158;53.404;-1.510;2022-08-03T10:48:00;4.95;;;1.40;;
21987;SDS011;11158;53.404;-1.510;2022-08-03T10:50:26;4.35;;;1.17;;
21987;SDS011;11158;53.404;-1.510;2022-08-03T10:52:57;4.28;;;1.50;;
21987;SDS011;11158;53.404;-1.510;2022-08-03T11:01:08;3.25;;;1.40;;
21987;SDS011;11158;53.404;-1.510;2022-08-03T11:06:20;3.30;;;1.55;;
21987;SDS011;11158;53.404;-1.510;2022-08-03T11:08:49;5.57;;;1.15;;
21987;SDS011;11158;53.404;-1.510;2022-08-03T11:11:34;1.95;;;1.15;;
21987;SDS011;11158;53.404;-1.510;2022-08-03T11:14:05;4.38;;;1.30;;
21987;SDS011;11158;53.404;-1.510;2022-08-03T11:19:00;3.60;;;1.60;;
21987;SDS011;11158;53.404;-1.510;2022-08-03T11:25:15;3.05;;;1.63;;
21987;SDS011;11158;53.404;-1.510;2022-08-03T11:27:25;2.63;;;1.17;;
21987;SDS011;11158;53.404;-1.510;2022-08-03T11:45:58;3.13;;;1.33;;
21987;SDS011;11158;53.404;-1.510;2022-08-03T11:48:33;4.78;;;1.33;;
21987;SDS011;11158;53.404;-1.510;2022-08-03T11:51:00;2.53;;;1.20;;
21987;SDS011;11158;53.404;-1.510;2022-08-03T11:53:26;6.55;;;1.10;;
21987;SDS011;11158;53.404;-1.510;2022-08-03T11:55:52;3.88;;;1.30;;
21987;SDS011;11158;53.404;-1.510;2022-08-03T11:58:18;3.08;;;1.50;;
21987;SDS011;11158;53.404;-1.510;2022-08-03T12:00:46;2.08;;;1.13;;
21987;SDS011;11158;53.404;-1.510;2022-08-03T12:03:14;4.47;;;1.40;;
21987;SDS011;11158;53.404;-1.510;2022-08-03T12:05:42;2.00;;;1.25;;
21987;SDS011;11158;53.404;-1.510;2022-08-03T12:08:31;4.18;;;1.13;;
21987;SDS011;11158;53.404;-1.510;2022-08-03T12:10:59;2.60;;;1.20;;
21987;SDS011;11158;53.404;-1.510;2022-08-03T12:13:35;2.22;;;1.08;;
21987;SDS011;11158;53.404;-1.510;2022-08-03T12:16:08;3.70;;;1.58;;
21987;SDS011;11158;53.404;-1.510;2022-08-03T12:18:34;4.47;;;1.23;;
21987;SDS011;11158;53.404;-1.510;2022-08-03T12:21:04;1.98;;;1.40;;
21987;SDS011;11158;53.404;-1.510;2022-08-03T12:26:05;3.90;;;1.30;;
21987;SDS011;11158;53.404;-1.510;2022-08-03T12:28:32;6.30;;;1.60;;
21987;SDS011;11158;53.404;-1.510;2022-08-03T12:31:03;5.95;;;1.85;;
21987;SDS011;11158;53.404;-1.510;2022-08-03T12:33:53;4.10;;;1.33;;
21987;SDS011;11158;53.404;-1.510;2022-08-03T12:36:30;3.17;;;1.27;;
21987;SDS011;11158;53.404;-1.510;2022-08-03T12:38:59;3.47;;;1.27;;
21987;SDS011;11158;53.404;-1.510;2022-08-03T12:41:27;3.22;;;1.58;;
21987;SDS011;11158;53.404;-1.510;2022-08-03T12:43:54;3.38;;;1.20;;
21987;SDS011;11158;53.404;-1.510;2022-08-03T12:46:20;4.20;;;1.48;;
21987;SDS011;11158;53.404;-1.510;2022-08-03T12:51:28;4.65;;;1.30;;
21987;SDS011;11158;53.404;-1.510;2022-08-03T12:53:55;3.85;;;1.52;;
21987;SDS011;11158;53.404;-1.510;2022-08-03T12:56:22;3.78;;;1.25;;
21987;SDS011;11158;53.404;-1.510;2022-08-03T12:58:48;5.00;;;1.90;;
21987;SDS011;11158;53.404;-1.510;2022-08-03T13:01:15;3.83;;;1.55;;
21987;SDS011;11158;53.404;-1.510;2022-08-03T13:03:44;3.05;;;1.58;;
21987;SDS011;11158;53.404;-1.510;2022-08-03T13:06:13;4.25;;;1.35;;
21987;SDS011;11158;53.404;-1.510;2022-08-03T13:08:39;3.65;;;1.35;;
21987;SDS011;11158;53.404;-1.510;2022-08-03T13:13:51;5.32;;;1.38;;
21987;SDS011;11158;53.404;-1.510;2022-08-03T13:16:18;4.60;;;1.55;;
21987;SDS011;11158;53.404;-1.510;2022-08-03T13:18:46;7.20;;;1.52;;
21987;SDS011;11158;53.404;-1.510;2022-08-03T13:21:16;4.35;;;1.40;;
21987;SDS011;11158;53.404;-1.510;2022-08-03T13:23:43;5.43;;;1.55;;
21987;SDS011;11158;53.404;-1.510;2022-08-03T13:26:10;3.35;;;1.40;;
21987;SDS011;11158;53.404;-1.510;2022-08-03T13:28:37;3.17;;;1.27;;
21987;SDS011;11158;53.404;-1.510;2022-08-03T13:31:04;7.43;;;1.42;;
21987;SDS011;11158;53.404;-1.510;2022-08-03T13:33:30;4.80;;;1.40;;
21987;SDS011;11158;53.404;-1.510;2022-08-03T13:35:56;5.63;;;1.58;;
21987;SDS011;11158;53.404;-1.510;2022-08-03T13:38:22;5.10;;;1.25;;
21987;SDS011;11158;53.404;-1.510;2022-08-03T13:40:50;5.88;;;1.70;;
21987;SDS011;11158;53.404;-1.510;2022-08-03T13:43:18;3.97;;;1.63;;
21987;SDS011;11158;53.404;-1.510;2022-08-03T13:45:44;6.65;;;1.38;;
21987;SDS011;11158;53.404;-1.510;2022-08-03T13:48:10;5.50;;;1.50;;
21987;SDS011;11158;53.404;-1.510;2022-08-03T13:50:36;3.90;;;1.50;;
21987;SDS011;11158;53.404;-1.510;2022-08-03T13:53:02;4.55;;;1.20;;
21987;SDS011;11158;53.404;-1.510;2022-08-03T13:55:28;6.30;;;1.83;;
21987;SDS011;11158;53.404;-1.510;2022-08-03T13:57:53;9.50;;;2.17;;
21987;SDS011;11158;53.404;-1.510;2022-08-03T14:00:19;6.82;;;1.50;;
21987;SDS011;11158;53.404;-1.510;2022-08-03T14:02:50;4.15;;;1.40;;
21987;SDS011;11158;53.404;-1.510;2022-08-03T14:05:16;4.22;;;1.15;;
21987;SDS011;11158;53.404;-1.510;2022-08-03T14:07:41;4.45;;;1.45;;
21987;SDS011;11158;53.404;-1.510;2022-08-03T14:10:08;4.22;;;1.38;;
21987;SDS011;11158;53.404;-1.510;2022-08-03T14:12:33;7.75;;;1.60;;
21987;SDS011;11158;53.404;-1.510;2022-08-03T14:14:59;6.63;;;1.27;;
21987;SDS011;11158;53.404;-1.510;2022-08-03T14:17:25;2.45;;;1.25;;
21987;SDS011;11158;53.404;-1.510;2022-08-03T14:19:51;3.83;;;1.50;;
21987;SDS011;11158;53.404;-1.510;2022-08-03T14:22:16;7.13;;;1.40;;
21987;SDS011;11158;53.404;-1.510;2022-08-03T14:24:42;3.47;;;1.30;;
21987;SDS011;11158;53.404;-1.510;2022-08-03T14:27:08;3.50;;;1.30;;
21987;SDS011;11158;53.404;-1.510;2022-08-03T14:29:34;3.85;;;1.23;;
21987;SDS011;11158;53.404;-1.510;2022-08-03T14:32:00;3.83;;;1.45;;
21987;SDS011;11158;53.404;-1.510;2022-08-03T14:34:26;5.80;;;1.02;;
21987;SDS011;11158;53.404;-1.510;2022-08-03T14:36:52;4.10;;;1.25;;
21987;SDS011;11158;53.404;-1.510;2022-08-03T14:39:17;3.25;;;1.13;;
21987;SDS011;11158;53.404;-1.510;2022-08-03T14:42:02;3.30;;;0.90;;
21987;SDS011;11158;53.404;-1.510;2022-08-03T14:44:28;3.75;;;1.17;;
21987;SDS011;11158;53.404;-1.510;2022-08-03T14:46:53;2.88;;;1.00;;
21987;SDS011;11158;53.404;-1.510;2022-08-03T14:49:19;4.38;;;1.23;;
21987;SDS011;11158;53.404;-1.510;2022-08-03T14:51:45;7.32;;;1.40;;
21987;SDS011;11158;53.404;-1.510;2022-08-03T14:54:10;3.45;;;1.27;;
21987;SDS011;11158;53.404;-1.510;2022-08-03T14:56:36;6.82;;;1.15;;
21987;SDS011;11158;53.404;-1.510;2022-08-03T14:59:02;1.40;;;1.08;;
21987;SDS011;11158;53.404;-1.510;2022-08-03T15:01:28;4.00;;;1.30;;
21987;SDS011;11158;53.404;-1.510;2022-08-03T15:03:53;5.57;;;1.30;;
21987;SDS011;11158;53.404;-1.510;2022-08-03T15:06:19;3.35;;;1.35;;
21987;SDS011;11158;53.404;-1.510;2022-08-03T15:08:45;1.92;;;0.95;;
21987;SDS011;11158;53.404;-1.510;2022-08-03T15:11:11;4.75;;;1.50;;
21987;SDS011;11158;53.404;-1.510;2022-08-03T15:13:36;5.45;;;1.30;;
21987;SDS011;11158;53.404;-1.510;2022-08-03T15:16:02;2.50;;;1.00;;
21987;SDS011;11158;53.404;-1.510;2022-08-03T15:18:29;4.68;;;1.30;;
21987;SDS011;11158;53.404;-1.510;2022-08-03T15:20:54;3.65;;;0.90;;
21987;SDS011;11158;53.404;-1.510;2022-08-03T15:23:20;2.55;;;1.08;;
21987;SDS011;11158;53.404;-1.510;2022-08-03T15:25:46;4.50;;;0.90;;
21987;SDS011;11158;53.404;-1.510;2022-08-03T15:28:12;6.95;;;1.10;;
21987;SDS011;11158;53.404;-1.510;2022-08-03T15:30:38;3.28;;;1.20;;
21987;SDS011;11158;53.404;-1.510;2022-08-03T15:33:04;2.83;;;1.17;;
21987;SDS011;11158;53.404;-1.510;2022-08-03T15:35:30;3.67;;;1.13;;